createdAt,value
2019-06-20T00:00:44.781Z,21.10
2019-06-20T00:03:11.207Z,21.20
2019-06-20T00:05:38.203Z,21.10
2019-06-20T00:08:04.607Z,21.10
2019-06-20T00:10:31.015Z,21.10
2019-06-20T00:13:00.778Z,21.00
2019-06-20T00:15:26.080Z,21.00
2019-06-20T00:17:52.299Z,21.00
2019-06-20T00:20:18.614Z,21.00
2019-06-20T00:22:44.911Z,20.90
2019-06-20T00:25:11.760Z,20.90
2019-06-20T00:27:37.944Z,20.90
2019-06-20T00:30:19.762Z,20.80
2019-06-20T00:32:46.295Z,20.80
2019-06-20T00:35:13.454Z,20.80
2019-06-20T00:37:39.903Z,20.80
2019-06-20T00:40:07.857Z,20.80
2019-06-20T00:42:34.179Z,20.80
2019-06-20T00:45:00.463Z,20.70
2019-06-20T00:47:26.832Z,20.70
2019-06-20T00:49:53.116Z,20.70
2019-06-20T00:52:19.425Z,20.70
2019-06-20T00:54:45.617Z,20.70
2019-06-20T00:57:11.927Z,20.70
2019-06-20T00:59:38.517Z,20.60
2019-06-20T01:02:04.842Z,20.60
2019-06-20T01:04:31.220Z,20.60
2019-06-20T01:06:57.789Z,20.60
2019-06-20T01:09:23.947Z,20.60
2019-06-20T01:11:50.229Z,20.60
2019-06-20T01:14:16.765Z,20.60
2019-06-20T01:16:43.280Z,20.60
2019-06-20T01:19:09.878Z,20.60
2019-06-20T01:21:36.198Z,20.60
2019-06-20T01:24:03.111Z,20.60
2019-06-20T01:26:29.444Z,20.60
2019-06-20T01:28:55.681Z,20.70
2019-06-20T01:31:21.874Z,20.60
2019-06-20T01:33:48.071Z,20.60
2019-06-20T01:36:14.334Z,20.60
2019-06-20T01:38:43.328Z,20.70
2019-06-20T01:41:09.533Z,20.70
2019-06-20T01:43:49.439Z,20.80
2019-06-20T01:46:04.378Z,20.80
2019-06-20T01:48:31.501Z,20.80
2019-06-20T01:50:57.880Z,20.80
2019-06-20T01:53:24.169Z,20.80
2019-06-20T01:55:50.463Z,20.80
2019-06-20T01:58:16.925Z,20.80
2019-06-20T02:00:46.990Z,20.80
2019-06-20T02:03:13.829Z,20.90
2019-06-20T02:05:40.132Z,20.90
2019-06-20T02:08:06.612Z,20.90
2019-06-20T02:10:33.684Z,20.90
2019-06-20T02:13:09.008Z,20.90
2019-06-20T02:15:35.360Z,20.90
2019-06-20T02:18:03.007Z,20.90
2019-06-20T02:20:36.138Z,20.90
2019-06-20T02:23:03.788Z,20.90
2019-06-20T02:25:30.890Z,20.90
2019-06-20T02:27:57.350Z,20.90
2019-06-20T02:30:23.925Z,20.90
2019-06-20T02:32:50.126Z,20.80
2019-06-20T02:35:16.523Z,20.80
2019-06-20T02:37:43.233Z,20.80
2019-06-20T02:40:10.575Z,20.80
2019-06-20T02:42:37.103Z,20.80
2019-06-20T02:45:05.058Z,20.80
2019-06-20T02:47:31.287Z,20.90
2019-06-20T02:49:58.730Z,20.90
2019-06-20T02:52:25.355Z,20.90
2019-06-20T02:54:51.762Z,20.90
2019-06-20T02:57:18.087Z,20.90
2019-06-20T02:59:44.437Z,20.80
2019-06-20T03:02:10.873Z,20.80
2019-06-20T03:04:37.073Z,20.80
2019-06-20T03:07:03.536Z,20.80
2019-06-20T03:09:30.029Z,20.80
2019-06-20T03:11:56.438Z,20.90
2019-06-20T03:14:22.892Z,20.90
2019-06-20T03:16:49.217Z,20.90
2019-06-20T03:19:15.774Z,20.90
2019-06-20T03:21:42.401Z,20.90
2019-06-20T03:24:08.712Z,20.80
2019-06-20T03:26:36.230Z,20.80
2019-06-20T03:29:10.632Z,20.80
2019-06-20T03:31:37.173Z,20.80
2019-06-20T03:34:03.463Z,20.90
2019-06-20T03:36:29.824Z,20.80
2019-06-20T03:38:56.253Z,20.80
2019-06-20T03:41:22.471Z,20.80
2019-06-20T03:43:48.796Z,20.80
2019-06-20T03:46:15.036Z,20.70
2019-06-20T03:48:41.762Z,20.70
2019-06-20T03:51:08.425Z,20.70
2019-06-20T03:53:35.110Z,20.70
2019-06-20T03:56:01.536Z,20.80
2019-06-20T03:58:27.859Z,20.80
2019-06-20T04:00:54.366Z,20.80
2019-06-20T04:03:20.967Z,20.80
2019-06-20T04:05:47.466Z,20.80
2019-06-20T04:08:13.760Z,20.80
2019-06-20T04:10:40.344Z,20.80
2019-06-20T04:13:07.068Z,20.80
2019-06-20T04:15:33.440Z,20.90
2019-06-20T04:18:00.122Z,20.80
2019-06-20T04:20:27.151Z,20.80
2019-06-20T04:22:53.498Z,20.80
2019-06-20T04:25:20.058Z,20.80
2019-06-20T04:27:47.364Z,20.80
2019-06-20T04:30:14.466Z,20.80
2019-06-20T04:32:40.772Z,20.70
2019-06-20T04:35:07.607Z,20.70
2019-06-20T04:37:34.137Z,20.70
2019-06-20T04:40:00.429Z,20.70
2019-06-20T04:42:26.799Z,20.80
2019-06-20T04:44:55.005Z,20.80
2019-06-20T04:47:21.557Z,20.80
2019-06-20T04:49:47.761Z,20.80
2019-06-20T04:52:14.114Z,20.80
2019-06-20T04:54:40.883Z,20.90
2019-06-20T04:57:07.225Z,21.00
2019-06-20T04:59:33.894Z,20.90
2019-06-20T05:02:00.497Z,20.90
2019-06-20T05:04:27.396Z,20.90
2019-06-20T05:06:57.989Z,20.90
2019-06-20T05:09:24.770Z,20.90
2019-06-20T05:11:51.103Z,20.90
2019-06-20T05:14:17.714Z,20.90
2019-06-20T05:16:43.896Z,20.90
2019-06-20T05:19:10.121Z,21.00
2019-06-20T05:21:36.694Z,21.10
2019-06-20T05:24:03.413Z,21.20
2019-06-20T05:26:29.813Z,21.20
2019-06-20T05:28:56.114Z,21.30
2019-06-20T05:31:22.623Z,21.20
2019-06-20T05:33:48.937Z,21.30
2019-06-20T05:36:15.203Z,21.20
2019-06-20T05:38:41.620Z,21.20
2019-06-20T05:41:07.893Z,21.20
2019-06-20T05:43:34.161Z,21.30
2019-06-20T05:46:09.637Z,21.30
2019-06-20T05:48:29.800Z,21.30
2019-06-20T05:50:56.018Z,21.30
2019-06-20T05:53:22.360Z,21.30
2019-06-20T05:55:48.800Z,21.30
2019-06-20T05:58:15.554Z,21.30
2019-06-20T06:00:42.203Z,21.30
2019-06-20T06:03:08.653Z,21.30
2019-06-20T06:05:34.946Z,21.30
2019-06-20T06:08:01.135Z,21.20
2019-06-20T06:10:27.436Z,21.10
2019-06-20T06:12:53.911Z,21.10
2019-06-20T06:15:21.257Z,20.90
2019-06-20T06:17:47.511Z,20.90
2019-06-20T06:20:14.330Z,20.80
2019-06-20T06:22:44.556Z,20.80
2019-06-20T06:25:09.399Z,20.80
2019-06-20T06:27:35.654Z,20.80
2019-06-20T06:30:07.592Z,20.80
2019-06-20T06:32:40.077Z,20.70
2019-06-20T06:35:04.382Z,20.70
2019-06-20T06:37:30.955Z,20.70
2019-06-20T06:39:57.564Z,20.80
2019-06-20T06:42:24.560Z,20.70
2019-06-20T06:44:51.015Z,20.70
2019-06-20T06:47:17.429Z,20.60
2019-06-20T06:49:43.624Z,20.60
2019-06-20T06:52:09.921Z,20.60
2019-06-20T06:54:36.153Z,20.60
2019-06-20T06:57:03.021Z,20.60
2019-06-20T06:59:29.532Z,20.60
2019-06-20T07:01:56.242Z,20.60
2019-06-20T07:04:23.197Z,20.60
2019-06-20T07:06:49.594Z,20.60
2019-06-20T07:09:16.185Z,20.60
2019-06-20T07:11:42.719Z,20.70
2019-06-20T07:14:09.007Z,20.80
2019-06-20T07:16:35.267Z,20.80
2019-06-20T07:19:01.970Z,20.80
2019-06-20T07:21:28.426Z,20.90
2019-06-20T07:23:55.325Z,20.90
2019-06-20T07:26:21.544Z,21.00
2019-06-20T07:28:51.434Z,21.10
2019-06-20T07:31:16.811Z,21.20
2019-06-20T07:33:43.584Z,21.30
2019-06-20T07:36:09.770Z,21.40
2019-06-20T07:38:36.214Z,21.40
2019-06-20T07:41:03.179Z,21.50
2019-06-20T07:43:29.535Z,21.60
2019-06-20T07:46:02.591Z,21.60
2019-06-20T07:48:24.000Z,21.60
2019-06-20T07:50:50.826Z,21.60
2019-06-20T07:53:17.027Z,21.60
2019-06-20T07:55:43.215Z,21.60
2019-06-20T07:58:09.733Z,21.60
2019-06-20T08:00:36.188Z,21.60
2019-06-20T08:03:03.491Z,21.60
2019-06-20T08:05:30.195Z,21.50
2019-06-20T08:07:57.119Z,21.50
2019-06-20T08:10:23.919Z,21.50
2019-06-20T08:12:50.692Z,21.60
2019-06-20T08:15:18.140Z,21.80
2019-06-20T08:17:45.193Z,21.90
2019-06-20T08:20:12.429Z,22.00
2019-06-20T08:22:40.317Z,22.20
2019-06-20T08:25:07.819Z,22.40
2019-06-20T08:27:50.016Z,22.50
2019-06-20T08:30:19.816Z,22.60
2019-06-20T08:32:46.124Z,22.70
2019-06-20T08:35:13.057Z,22.70
2019-06-20T08:37:39.530Z,22.60
2019-06-20T08:40:06.752Z,22.70
2019-06-20T08:42:33.217Z,22.80
2019-06-20T08:44:59.548Z,23.10
2019-06-20T08:47:25.747Z,23.20
2019-06-20T08:49:52.216Z,23.30
2019-06-20T08:52:19.134Z,23.50
2019-06-20T08:54:45.368Z,23.50
2019-06-20T08:57:11.846Z,23.50
2019-06-20T08:59:38.524Z,23.50
2019-06-20T09:04:31.449Z,23.60
2019-06-20T09:06:59.160Z,23.70
2019-06-20T09:09:26.406Z,23.70
2019-06-20T09:11:53.900Z,23.60
2019-06-20T09:14:22.857Z,23.50
2019-06-20T09:16:49.468Z,23.30
2019-06-20T09:19:15.840Z,23.10
2019-06-20T09:21:42.223Z,23.00
2019-06-20T09:24:08.688Z,22.90
2019-06-20T09:26:35.292Z,22.80
2019-06-20T09:29:01.783Z,22.80
2019-06-20T09:31:28.240Z,22.90
2019-06-20T09:33:55.699Z,23.00
2019-06-20T09:36:22.330Z,23.30
2019-06-20T09:38:48.931Z,23.50
2019-06-20T09:41:15.383Z,23.70
2019-06-20T09:43:41.810Z,24.00
2019-06-20T09:46:08.594Z,24.20
2019-06-20T09:48:35.463Z,24.30
2019-06-20T09:51:01.921Z,24.20
2019-06-20T09:53:28.798Z,24.20
2019-06-20T09:55:55.671Z,24.20
2019-06-20T09:58:22.625Z,24.30
2019-06-20T10:00:50.770Z,24.50
2019-06-20T10:03:17.247Z,24.50
2019-06-20T10:05:43.669Z,24.50
2019-06-20T10:08:10.090Z,24.50
2019-06-20T10:10:36.636Z,24.40
2019-06-20T10:13:03.202Z,24.40
2019-06-20T10:15:31.325Z,24.60
2019-06-20T10:17:57.701Z,24.70
2019-06-20T10:20:25.752Z,24.70
2019-06-20T10:22:53.076Z,24.60
2019-06-20T10:25:20.859Z,24.60
2019-06-20T10:27:48.307Z,24.70
2019-06-20T10:30:19.547Z,25.00
2019-06-20T10:32:46.766Z,25.30
2019-06-20T10:35:13.684Z,25.20
2019-06-20T10:37:40.090Z,25.10
2019-06-20T10:40:07.308Z,25.10
2019-06-20T10:42:33.823Z,25.40
2019-06-20T10:45:00.570Z,25.80
2019-06-20T10:47:33.609Z,25.90
2019-06-20T10:49:56.074Z,25.70
2019-06-20T10:52:22.694Z,25.70
2019-06-20T10:54:49.312Z,25.80
2019-06-20T10:57:15.589Z,25.90
2019-06-20T10:59:42.723Z,25.90
2019-06-20T11:02:09.144Z,25.70
2019-06-20T11:04:35.621Z,25.60
2019-06-20T11:07:02.155Z,25.60
2019-06-20T11:09:28.555Z,25.90
2019-06-20T11:11:54.976Z,26.00
2019-06-20T11:14:21.422Z,26.10
2019-06-20T11:16:49.188Z,26.30
2019-06-20T11:19:16.365Z,26.50
2019-06-20T11:21:43.234Z,26.60
2019-06-20T11:24:09.617Z,26.40
2019-06-20T11:26:37.764Z,26.10
2019-06-20T11:29:04.580Z,25.90
2019-06-20T11:31:30.972Z,26.00
2019-06-20T11:33:57.409Z,26.50
2019-06-20T11:36:23.765Z,26.60
2019-06-20T11:38:50.519Z,26.70
2019-06-20T11:41:17.563Z,27.60
2019-06-20T11:43:44.540Z,28.50
2019-06-20T11:46:10.749Z,29.00
2019-06-20T11:48:38.405Z,29.60
2019-06-20T11:51:05.187Z,30.50
2019-06-20T11:53:33.665Z,30.40
2019-06-20T11:56:00.953Z,30.70
2019-06-20T11:58:27.659Z,31.70
2019-06-20T12:01:03.702Z,32.10
2019-06-20T12:03:22.195Z,32.10
2019-06-20T12:05:49.784Z,31.30
2019-06-20T12:08:16.308Z,30.30
2019-06-20T12:10:43.069Z,29.40
2019-06-20T12:13:10.420Z,29.30
2019-06-20T12:15:38.074Z,31.20
2019-06-20T12:18:05.310Z,32.80
2019-06-20T12:20:31.513Z,34.80
2019-06-20T12:22:58.020Z,37.20
2019-06-20T12:25:24.750Z,38.30
2019-06-20T12:27:51.552Z,40.50
2019-06-20T12:30:18.732Z,42.20
2019-06-20T12:32:46.676Z,42.00
2019-06-20T12:35:13.491Z,42.40
2019-06-20T12:37:40.565Z,41.70
2019-06-20T12:40:07.782Z,40.40
2019-06-20T12:42:34.135Z,39.80
2019-06-20T12:45:00.977Z,40.20
2019-06-20T12:47:27.163Z,39.80
2019-06-20T12:49:53.762Z,39.90
2019-06-20T12:52:20.259Z,40.50
2019-06-20T12:54:47.036Z,40.70
2019-06-20T12:57:16.131Z,39.20
2019-06-20T12:59:42.779Z,39.50
2019-06-20T13:02:10.530Z,41.50
2019-06-20T13:04:38.222Z,42.50
2019-06-20T13:07:05.355Z,43.60
2019-06-20T13:09:31.859Z,43.90
2019-06-20T13:11:58.305Z,43.80
2019-06-20T13:14:24.756Z,45.00
2019-06-20T13:16:50.965Z,43.80
2019-06-20T13:19:17.435Z,43.20
2019-06-20T13:21:44.649Z,42.10
2019-06-20T13:24:11.277Z,42.60
2019-06-20T13:26:37.478Z,44.60
2019-06-20T13:29:04.780Z,46.50
2019-06-20T13:31:31.200Z,45.30
2019-06-20T13:33:59.627Z,43.40
2019-06-20T13:36:26.754Z,40.70
2019-06-20T13:38:53.163Z,39.50
2019-06-20T13:41:19.506Z,37.90
2019-06-20T13:43:45.706Z,35.90
2019-06-20T13:46:12.022Z,34.20
2019-06-20T13:48:40.801Z,33.00
2019-06-20T13:51:08.354Z,32.80
2019-06-20T13:53:34.795Z,34.80
2019-06-20T13:56:01.356Z,36.90
2019-06-20T13:58:28.238Z,38.70
2019-06-20T14:00:54.814Z,41.00
2019-06-20T14:03:21.309Z,41.90
2019-06-20T14:05:47.598Z,40.70
2019-06-20T14:08:13.861Z,39.40
2019-06-20T14:10:40.168Z,38.10
2019-06-20T14:13:18.748Z,37.10
2019-06-20T14:15:35.322Z,36.20
2019-06-20T14:18:01.953Z,35.50
2019-06-20T14:20:28.443Z,34.90
2019-06-20T14:22:56.554Z,34.20
2019-06-20T14:25:23.256Z,33.60
2019-06-20T14:27:51.387Z,33.00
2019-06-20T14:30:18.642Z,32.40
2019-06-20T14:32:45.015Z,32.10
2019-06-20T14:35:12.048Z,31.80
2019-06-20T14:37:43.391Z,31.40
2019-06-20T14:40:09.729Z,31.00
2019-06-20T14:42:36.371Z,30.60
2019-06-20T14:45:06.437Z,30.10
2019-06-20T14:47:33.381Z,29.80
2019-06-20T14:50:00.015Z,29.50
2019-06-20T14:52:26.635Z,29.20
2019-06-20T14:54:54.015Z,28.90
2019-06-20T14:57:21.352Z,28.60
2019-06-20T14:59:48.385Z,28.50
2019-06-20T15:02:16.142Z,28.60
2019-06-20T15:04:44.386Z,28.80
2019-06-20T15:07:11.438Z,28.90
2019-06-20T15:09:37.810Z,28.80
2019-06-20T15:12:04.130Z,28.80
2019-06-20T15:14:31.101Z,28.80
2019-06-20T15:16:57.469Z,28.70
2019-06-20T15:19:23.695Z,28.50
2019-06-20T15:21:50.268Z,28.40
2019-06-20T15:24:16.874Z,28.20
2019-06-20T15:26:43.129Z,28.00
2019-06-20T15:29:09.563Z,28.00
2019-06-20T15:31:35.867Z,27.90
2019-06-20T15:34:02.581Z,27.70
2019-06-20T15:36:28.875Z,27.50
2019-06-20T15:38:55.450Z,27.30
2019-06-20T15:41:21.848Z,27.20
2019-06-20T15:43:49.782Z,27.10
2019-06-20T15:46:16.449Z,27.10
2019-06-20T15:48:42.875Z,27.10
2019-06-20T15:51:09.191Z,27.00
2019-06-20T15:53:35.517Z,26.80
2019-06-20T15:56:02.376Z,26.70
2019-06-20T15:58:28.894Z,26.50
2019-06-20T16:00:55.253Z,26.50
2019-06-20T16:03:21.676Z,26.50
2019-06-20T16:05:47.919Z,26.60
2019-06-20T16:08:14.162Z,26.70
2019-06-20T16:10:40.803Z,26.80
2019-06-20T16:13:07.319Z,26.70
2019-06-20T16:15:33.540Z,26.60
2019-06-20T16:17:59.781Z,26.40
2019-06-20T16:20:26.076Z,26.20
2019-06-20T16:22:52.650Z,25.90
2019-06-20T16:25:19.436Z,25.60
2019-06-20T16:27:45.827Z,25.00
2019-06-20T16:30:12.941Z,24.40
2019-06-20T16:32:39.420Z,24.00
2019-06-20T16:35:06.425Z,23.80
2019-06-20T16:37:32.658Z,23.60
2019-06-20T16:39:58.954Z,23.50
2019-06-20T16:42:25.179Z,23.50
2019-06-20T16:44:51.694Z,23.40
2019-06-20T16:47:18.198Z,23.30
2019-06-20T16:49:44.991Z,23.20
2019-06-20T16:52:11.332Z,23.20
2019-06-20T16:54:37.899Z,23.20
2019-06-20T16:57:04.382Z,23.10
2019-06-20T16:59:31.117Z,23.20
2019-06-20T17:01:57.477Z,23.30
2019-06-20T17:04:23.872Z,23.30
2019-06-20T17:06:50.830Z,23.40
2019-06-20T17:09:17.132Z,23.40
2019-06-20T17:11:43.894Z,23.30
2019-06-20T17:14:10.753Z,23.20
2019-06-20T17:16:37.329Z,23.10
2019-06-20T17:19:03.715Z,23.20
2019-06-20T17:21:29.913Z,23.20
2019-06-20T17:23:57.441Z,23.20
2019-06-20T17:26:23.811Z,23.20
2019-06-20T17:28:50.196Z,23.20
2019-06-20T17:31:16.988Z,23.10
2019-06-20T17:33:56.814Z,23.10
2019-06-20T17:36:18.236Z,23.00
2019-06-20T17:38:40.169Z,23.00
2019-06-20T17:41:06.593Z,22.90
2019-06-20T17:43:33.127Z,22.90
2019-06-20T17:45:59.583Z,22.90
2019-06-20T17:48:26.196Z,22.90
2019-06-20T17:50:52.519Z,22.80
2019-06-20T17:53:18.844Z,22.80
2019-06-20T17:55:45.172Z,22.90
2019-06-20T17:58:11.472Z,23.00
2019-06-20T18:00:37.975Z,23.00
2019-06-20T18:03:04.551Z,22.90
2019-06-20T18:05:30.812Z,22.80
2019-06-20T18:07:57.198Z,22.80
2019-06-20T18:10:24.014Z,22.70
2019-06-20T18:12:50.565Z,22.70
2019-06-20T18:15:17.649Z,22.70
2019-06-20T18:17:44.014Z,22.60
2019-06-20T18:20:10.977Z,22.50
2019-06-20T18:22:37.609Z,22.40
2019-06-20T18:25:05.271Z,22.30
2019-06-20T18:27:31.579Z,22.30
2019-06-20T18:29:57.813Z,22.30
2019-06-20T18:32:24.144Z,22.20
2019-06-20T18:35:01.603Z,22.10
2019-06-20T18:37:30.907Z,22.10
2019-06-20T18:39:47.037Z,22.00
2019-06-20T18:42:13.277Z,22.00
2019-06-20T18:44:39.861Z,22.00
2019-06-20T18:47:06.503Z,22.10
2019-06-20T18:49:32.839Z,22.10
2019-06-20T18:51:59.490Z,22.00
2019-06-20T18:54:26.090Z,22.00
2019-06-20T18:56:52.397Z,22.00
2019-06-20T18:59:19.106Z,22.00
2019-06-20T19:02:05.578Z,22.00
2019-06-20T19:04:45.325Z,21.90
2019-06-20T19:07:00.081Z,21.90
2019-06-20T19:09:26.447Z,21.90
2019-06-20T19:11:53.485Z,21.90
2019-06-20T19:14:20.318Z,21.90
2019-06-20T19:16:46.649Z,21.80
2019-06-20T19:19:13.186Z,21.80
2019-06-20T19:21:39.595Z,21.80
2019-06-20T19:24:05.897Z,21.80
2019-06-20T19:26:32.434Z,21.70
2019-06-20T19:28:59.226Z,21.70
2019-06-20T19:31:25.904Z,21.60
2019-06-20T19:33:52.263Z,21.50
2019-06-20T19:36:18.611Z,21.40
2019-06-20T19:38:45.004Z,21.40
2019-06-20T19:41:11.575Z,21.30
2019-06-20T19:43:37.988Z,21.30
2019-06-20T19:46:05.195Z,21.20
2019-06-20T19:48:31.941Z,21.20
2019-06-20T19:50:58.227Z,21.10
2019-06-20T19:53:24.899Z,21.10
2019-06-20T19:55:51.586Z,21.00
2019-06-20T19:58:18.396Z,21.00
2019-06-20T20:00:44.711Z,21.00
2019-06-20T20:03:12.280Z,21.00
2019-06-20T20:05:38.842Z,20.90
2019-06-20T20:08:05.389Z,20.80
2019-06-20T20:10:45.495Z,20.80
2019-06-20T20:13:15.102Z,20.70
2019-06-20T20:15:40.800Z,20.60
2019-06-20T20:18:07.300Z,20.50
2019-06-20T20:20:33.620Z,20.50
2019-06-20T20:23:00.291Z,20.40
2019-06-20T20:25:26.677Z,20.30
2019-06-20T20:27:53.665Z,20.30
2019-06-20T20:30:20.316Z,20.20
2019-06-20T20:32:46.533Z,20.10
2019-06-20T20:35:12.915Z,20.10
2019-06-20T20:37:39.243Z,20.00
2019-06-20T20:40:06.886Z,20.00
2019-06-20T20:42:33.083Z,19.90
2019-06-20T20:44:59.372Z,19.90
2019-06-20T20:47:28.401Z,19.80
2019-06-20T20:49:53.797Z,19.70
2019-06-20T20:52:20.388Z,19.70
2019-06-20T20:54:46.649Z,19.60
2019-06-20T20:57:13.115Z,19.60
2019-06-20T20:59:39.633Z,19.60
2019-06-20T21:02:06.155Z,19.50
2019-06-20T21:04:32.561Z,19.50
2019-06-20T21:06:59.135Z,19.50
2019-06-20T21:09:25.398Z,19.50
2019-06-20T21:11:51.590Z,19.40
2019-06-20T21:14:17.836Z,19.40
2019-06-20T21:16:44.450Z,19.40
2019-06-20T21:19:11.172Z,19.40
2019-06-20T21:21:37.511Z,19.30
2019-06-20T21:24:03.948Z,19.30
2019-06-20T21:26:30.519Z,19.30
2019-06-20T21:28:56.879Z,19.20
2019-06-20T21:31:23.281Z,19.20
2019-06-20T21:33:49.663Z,19.20
2019-06-20T21:36:15.942Z,19.20
2019-06-20T21:38:42.255Z,19.10
2019-06-20T21:41:08.524Z,19.10
2019-06-20T21:43:34.832Z,19.10
2019-06-20T21:46:01.332Z,19.10
2019-06-20T21:48:27.911Z,19.10
2019-06-20T21:50:54.214Z,19.00
2019-06-20T21:53:20.531Z,19.00
2019-06-20T21:55:46.974Z,18.90
2019-06-20T21:58:13.280Z,18.90
2019-06-20T22:00:44.258Z,18.90
2019-06-20T22:03:11.193Z,19.00
2019-06-20T22:05:38.424Z,19.00
2019-06-20T22:08:05.385Z,19.00
2019-06-20T22:10:31.559Z,19.10
2019-06-20T22:12:57.742Z,19.10
2019-06-20T22:15:24.264Z,19.10
2019-06-20T22:17:50.638Z,19.20
2019-06-20T22:20:17.450Z,19.20
2019-06-20T22:22:44.008Z,19.20
2019-06-20T22:25:10.562Z,19.20
2019-06-20T22:27:36.811Z,19.20
2019-06-20T22:30:06.836Z,19.20
2019-06-20T22:32:33.191Z,19.20
2019-06-20T22:34:59.456Z,19.20
2019-06-20T22:37:25.632Z,19.20
2019-06-20T22:39:52.089Z,19.20
2019-06-20T22:42:18.823Z,19.20
2019-06-20T22:44:45.114Z,19.10
2019-06-20T22:47:11.459Z,19.10
2019-06-20T22:49:37.641Z,19.20
2019-06-20T22:52:03.814Z,19.20
2019-06-20T22:54:30.037Z,19.20
2019-06-20T22:56:56.349Z,19.20
2019-06-20T22:59:22.652Z,19.10
2019-06-20T23:01:49.006Z,19.10
2019-06-20T23:04:15.301Z,19.10
2019-06-20T23:06:55.390Z,19.10
2019-06-20T23:09:09.613Z,19.10
2019-06-20T23:11:35.943Z,19.00
2019-06-20T23:14:02.228Z,19.00
2019-06-20T23:16:28.445Z,19.00
2019-06-20T23:18:54.885Z,19.00
2019-06-20T23:21:21.307Z,18.90
2019-06-20T23:23:47.545Z,18.80
2019-06-20T23:26:14.224Z,18.80
2019-06-20T23:28:40.565Z,18.80
2019-06-20T23:31:06.912Z,18.80
2019-06-20T23:33:33.286Z,18.70
2019-06-20T23:35:59.767Z,18.70
2019-06-20T23:38:26.028Z,18.70
2019-06-20T23:40:52.218Z,18.70
2019-06-20T23:43:18.485Z,18.70
2019-06-20T23:45:45.189Z,18.60
2019-06-20T23:48:11.452Z,18.70
2019-06-20T23:54:20.891Z,18.70
2019-06-20T23:56:47.151Z,18.70
2019-06-20T23:59:13.463Z,18.70
